Fort Myers, FL

3:45 PM EST on December 04, 2016 (GMT -0500)
Page | | Change Station

Elev 16 ft 26.58 °N, 81.86 °W | Updated 52 minutes ago

Mostly Cloudy
Mostly Cloudy
85 °F
Feels Like 88 °F
N
9
Wind Variable Wind from ESE

Today
High -- | Low -- °F
--% Chance of Precip.
Yesterday
High -- | Low -- °F
Precip. -- in
Pressure 29.99 in
Visibility 10.0 miles
Clouds Few 4200 ft
Mostly Cloudy 5500 ft
Heat Index 88 °F
Dew Point 67 °F
Humidity 55%
Rainfall 0.00 in
Snow Depth Not available.
7:01 AM 5:34 PM
Waxing Crescent, 25% visible
METAR KFMY 041953Z 12008KT 10SM FEW042 BKN055 29/19 A2999 RMK AO2 SLP156 T02940194
Pressure 29.99 in
Visibility 10.0 miles
Clouds Few 4200 ft
Mostly Cloudy 5500 ft
Heat Index 88 °F
Dew Point 67 °F
Humidity 55%
Rainfall 0.00 in
Snow Depth Not available.
7:01 AM 5:34 PM
Waxing Crescent, 25% visible
METAR KFMY 041953Z 12008KT 10SM FEW042 BKN055 29/19 A2999 RMK AO2 SLP156 T02940194

10-Day Weather Forecast

Almanac

Astronomy

Dec. 04, 2016 Rise Set
Actual Time
Civil Twilight
Nautical Twilight
Astronomical Twilight
Moon
Length of Visible Light
Length of Day
Tomorrow will be .
, % of the Moon is Illuminated

Today's Extremes

State Highs State Lows

Community

WunderPhotos

Upload Photos

1,955,667 photos uploaded!

WunderBlog® & News

Nearby

Air Quality

  Air Quality AQ Index Pollutant
Not available.

Snow Depth

Station Depth Elevation

Earthquake Activity

City Distance Mag. Time & Date
Minimum magnitude displayed is 2.5.

Coastal Water Temperatures

Place Temperature

Stations

Nearby Weather Stations

Station Location Temp. Windchill Dew Point Humidity Wind Precip. Elev Updated Type
                   

Watches & Warnings

There are currently no watches in effect.